sensor_id;sensor_type;location;lat;lon;timestamp;pressure;altitude;pressure_sealevel;temperature;humidity
10958;BME280;5531;42.570;23.676;2023-04-01T00:01:42;91190.50;;;11.30;64.27
10958;BME280;5531;42.570;23.676;2023-04-01T00:04:11;91188.13;;;11.10;65.31
10958;BME280;5531;42.570;23.676;2023-04-01T00:06:41;91185.00;;;11.01;65.21
10958;BME280;5531;42.570;23.676;2023-04-01T00:09:10;91189.78;;;11.04;64.82
10958;BME280;5531;42.570;23.676;2023-04-01T00:11:42;91176.34;;;11.00;65.38
10958;BME280;5531;42.570;23.676;2023-04-01T00:14:11;91169.47;;;10.99;64.81
10958;BME280;5531;42.570;23.676;2023-04-01T00:16:40;91174.44;;;11.08;65.58
10958;BME280;5531;42.570;23.676;2023-04-01T00:19:09;91168.41;;;11.07;64.87
10958;BME280;5531;42.570;23.676;2023-04-01T00:21:38;91169.06;;;11.03;64.61
10958;BME280;5531;42.570;23.676;2023-04-01T00:24:08;91170.97;;;10.95;65.44
10958;BME280;5531;42.570;23.676;2023-04-01T00:26:37;91173.66;;;10.89;66.27
10958;BME280;5531;42.570;23.676;2023-04-01T00:29:10;91172.19;;;10.74;66.71
10958;BME280;5531;42.570;23.676;2023-04-01T00:31:39;91175.53;;;10.63;67.68
10958;BME280;5531;42.570;23.676;2023-04-01T00:34:08;91178.94;;;10.63;67.80
10958;BME280;5531;42.570;23.676;2023-04-01T00:36:37;91174.84;;;10.49;68.61
10958;BME280;5531;42.570;23.676;2023-04-01T00:39:07;91170.34;;;10.38;69.08
10958;BME280;5531;42.570;23.676;2023-04-01T00:41:36;91168.97;;;10.35;69.26
10958;BME280;5531;42.570;23.676;2023-04-01T00:44:21;91160.94;;;10.30;69.72
10958;BME280;5531;42.570;23.676;2023-04-01T00:46:50;91158.91;;;10.32;69.39
10958;BME280;5531;42.570;23.676;2023-04-01T00:49:23;91164.34;;;10.31;69.36
10958;BME280;5531;42.570;23.676;2023-04-01T00:51:56;91160.03;;;10.18;69.98
10958;BME280;5531;42.570;23.676;2023-04-01T00:54:27;91156.69;;;10.11;70.48
10958;BME280;5531;42.570;23.676;2023-04-01T00:57:00;91152.34;;;9.98;71.10
10958;BME280;5531;42.570;23.676;2023-04-01T00:59:35;91137.72;;;9.90;71.64
10958;BME280;5531;42.570;23.676;2023-04-01T01:02:08;91130.28;;;9.87;71.94
10958;BME280;5531;42.570;23.676;2023-04-01T01:04:39;91135.94;;;9.84;72.53
10958;BME280;5531;42.570;23.676;2023-04-01T01:07:17;91130.28;;;9.87;72.53
10958;BME280;5531;42.570;23.676;2023-04-01T01:09:55;91132.47;;;9.90;72.26
10958;BME280;5531;42.570;23.676;2023-04-01T01:12:33;91132.28;;;9.91;71.58
10958;BME280;5531;42.570;23.676;2023-04-01T01:15:13;91126.81;;;9.93;71.88
10958;BME280;5531;42.570;23.676;2023-04-01T01:17:50;91133.44;;;9.96;71.36
10958;BME280;5531;42.570;23.676;2023-04-01T01:20:51;91131.78;;;10.01;70.55
10958;BME280;5531;42.570;23.676;2023-04-01T01:26:44;91121.19;;;10.15;69.30
10958;BME280;5531;42.570;23.676;2023-04-01T01:29:32;91117.72;;;10.21;68.08
10958;BME280;5531;42.570;23.676;2023-04-01T01:32:15;91120.28;;;10.27;67.27
10958;BME280;5531;42.570;23.676;2023-04-01T01:34:50;91105.09;;;10.36;67.06
10958;BME280;5531;42.570;23.676;2023-04-01T01:37:26;91105.41;;;10.47;66.63
10958;BME280;5531;42.570;23.676;2023-04-01T01:40:00;91102.94;;;10.52;65.45
10958;BME280;5531;42.570;23.676;2023-04-01T01:42:32;91096.81;;;10.58;65.21
10958;BME280;5531;42.570;23.676;2023-04-01T01:45:04;91097.31;;;10.67;64.75
10958;BME280;5531;42.570;23.676;2023-04-01T01:47:35;91097.41;;;10.60;65.96
10958;BME280;5531;42.570;23.676;2023-04-01T01:50:06;91092.59;;;10.57;67.16
10958;BME280;5531;42.570;23.676;2023-04-01T01:52:39;91094.50;;;10.50;68.03
10958;BME280;5531;42.570;23.676;2023-04-01T01:55:27;91091.56;;;10.39;68.34
10958;BME280;5531;42.570;23.676;2023-04-01T01:57:59;91094.63;;;10.36;69.02
10958;BME280;5531;42.570;23.676;2023-04-01T02:00:29;91086.19;;;10.34;68.97
10958;BME280;5531;42.570;23.676;2023-04-01T02:02:59;91084.41;;;10.09;69.80
10958;BME280;5531;42.570;23.676;2023-04-01T02:05:29;91087.31;;;10.01;69.26
10958;BME280;5531;42.570;23.676;2023-04-01T02:08:06;91084.63;;;10.08;69.25
10958;BME280;5531;42.570;23.676;2023-04-01T02:10:38;91067.91;;;10.09;69.10
10958;BME280;5531;42.570;23.676;2023-04-01T02:13:13;91064.53;;;10.02;69.66
10958;BME280;5531;42.570;23.676;2023-04-01T02:15:47;91064.47;;;9.90;71.51
10958;BME280;5531;42.570;23.676;2023-04-01T02:18:19;91061.69;;;9.66;73.50
10958;BME280;5531;42.570;23.676;2023-04-01T02:20:49;91068.19;;;9.57;74.56
10958;BME280;5531;42.570;23.676;2023-04-01T02:23:21;91056.84;;;9.38;74.87
10958;BME280;5531;42.570;23.676;2023-04-01T02:25:51;91053.72;;;9.29;74.94
10958;BME280;5531;42.570;23.676;2023-04-01T02:28:20;91047.72;;;9.22;75.52
10958;BME280;5531;42.570;23.676;2023-04-01T02:30:51;91047.03;;;9.08;76.22
10958;BME280;5531;42.570;23.676;2023-04-01T02:33:20;91046.69;;;8.98;77.44
10958;BME280;5531;42.570;23.676;2023-04-01T02:35:50;91033.06;;;8.89;78.31
10958;BME280;5531;42.570;23.676;2023-04-01T02:38:21;91042.72;;;8.89;78.05
10958;BME280;5531;42.570;23.676;2023-04-01T02:40:56;91029.91;;;8.80;79.16
10958;BME280;5531;42.570;23.676;2023-04-01T02:43:26;91034.78;;;8.77;78.28
10958;BME280;5531;42.570;23.676;2023-04-01T02:45:55;91034.53;;;8.85;77.52
10958;BME280;5531;42.570;23.676;2023-04-01T02:48:24;91039.50;;;8.93;77.13
10958;BME280;5531;42.570;23.676;2023-04-01T02:50:53;91022.53;;;9.03;76.60
10958;BME280;5531;42.570;23.676;2023-04-01T02:53:25;91018.19;;;8.96;76.88
10958;BME280;5531;42.570;23.676;2023-04-01T02:55:54;91023.81;;;8.93;77.01
10958;BME280;5531;42.570;23.676;2023-04-01T02:58:23;91037.25;;;8.97;77.71
10958;BME280;5531;42.570;23.676;2023-04-01T03:00:52;91041.00;;;9.08;77.31
10958;BME280;5531;42.570;23.676;2023-04-01T03:03:21;91042.16;;;9.12;76.51
10958;BME280;5531;42.570;23.676;2023-04-01T03:05:50;91049.97;;;9.18;75.80
10958;BME280;5531;42.570;23.676;2023-04-01T03:08:21;91036.63;;;9.27;75.91
10958;BME280;5531;42.570;23.676;2023-04-01T03:10:52;91041.97;;;9.39;74.61
10958;BME280;5531;42.570;23.676;2023-04-01T03:13:21;91048.09;;;9.51;73.86
10958;BME280;5531;42.570;23.676;2023-04-01T03:15:50;91052.66;;;9.62;73.26
10958;BME280;5531;42.570;23.676;2023-04-01T03:18:19;91052.38;;;9.70;72.74
10958;BME280;5531;42.570;23.676;2023-04-01T03:20:49;91048.03;;;9.83;70.33
10958;BME280;5531;42.570;23.676;2023-04-01T03:23:18;91050.53;;;9.96;69.03
10958;BME280;5531;42.570;23.676;2023-04-01T03:25:47;91054.00;;;10.08;67.95
10958;BME280;5531;42.570;23.676;2023-04-01T03:28:19;91057.66;;;10.26;67.74
10958;BME280;5531;42.570;23.676;2023-04-01T03:30:48;91048.31;;;10.37;70.30
10958;BME280;5531;42.570;23.676;2023-04-01T03:33:17;91048.75;;;10.34;66.60
10958;BME280;5531;42.570;23.676;2023-04-01T03:35:46;91048.09;;;10.38;67.16
10958;BME280;5531;42.570;23.676;2023-04-01T03:38:18;91042.44;;;10.41;68.47
10958;BME280;5531;42.570;23.676;2023-04-01T03:40:47;91044.56;;;10.26;70.06
10958;BME280;5531;42.570;23.676;2023-04-01T03:43:18;91054.78;;;9.90;72.12
10958;BME280;5531;42.570;23.676;2023-04-01T03:45:49;91050.53;;;9.71;72.88
10958;BME280;5531;42.570;23.676;2023-04-01T03:48:20;91044.19;;;9.85;71.85
10958;BME280;5531;42.570;23.676;2023-04-01T03:50:49;91044.13;;;9.92;72.08
10958;BME280;5531;42.570;23.676;2023-04-01T03:53:18;91048.41;;;9.86;72.03
10958;BME280;5531;42.570;23.676;2023-04-01T03:55:47;91047.25;;;10.01;71.47
10958;BME280;5531;42.570;23.676;2023-04-01T03:58:19;91049.44;;;10.04;68.55
10958;BME280;5531;42.570;23.676;2023-04-01T04:00:48;91035.47;;;10.10;67.92
10958;BME280;5531;42.570;23.676;2023-04-01T04:03:17;91042.91;;;10.13;67.23
10958;BME280;5531;42.570;23.676;2023-04-01T04:05:47;91045.44;;;10.20;64.95
10958;BME280;5531;42.570;23.676;2023-04-01T04:08:17;91045.09;;;10.35;64.83
10958;BME280;5531;42.570;23.676;2023-04-01T04:10:47;91048.81;;;10.45;64.44
10958;BME280;5531;42.570;23.676;2023-04-01T04:13:19;91045.88;;;10.54;63.76
10958;BME280;5531;42.570;23.676;2023-04-01T04:15:48;91037.88;;;10.67;64.08
10958;BME280;5531;42.570;23.676;2023-04-01T04:18:17;91030.38;;;10.71;65.73
10958;BME280;5531;42.570;23.676;2023-04-01T04:20:46;91018.97;;;10.65;63.90
10958;BME280;5531;42.570;23.676;2023-04-01T04:23:16;90997.84;;;10.48;66.62
10958;BME280;5531;42.570;23.676;2023-04-01T04:25:54;90980.31;;;10.30;67.71
10958;BME280;5531;42.570;23.676;2023-04-01T04:28:26;90978.03;;;10.15;68.77
10958;BME280;5531;42.570;23.676;2023-04-01T04:30:55;90979.28;;;10.13;68.91
10958;BME280;5531;42.570;23.676;2023-04-01T04:33:25;90978.22;;;10.20;68.59
10958;BME280;5531;42.570;23.676;2023-04-01T04:35:55;90963.72;;;10.18;68.53
10958;BME280;5531;42.570;23.676;2023-04-01T04:38:25;90984.47;;;10.01;70.40
10958;BME280;5531;42.570;23.676;2023-04-01T04:40:55;90985.63;;;10.05;71.25
10958;BME280;5531;42.570;23.676;2023-04-01T04:43:27;90975.28;;;10.10;71.34
10958;BME280;5531;42.570;23.676;2023-04-01T04:45:56;90961.94;;;9.81;73.81
10958;BME280;5531;42.570;23.676;2023-04-01T04:48:25;90951.09;;;9.78;74.32
10958;BME280;5531;42.570;23.676;2023-04-01T04:50:54;90945.16;;;9.70;73.54
10958;BME280;5531;42.570;23.676;2023-04-01T04:53:23;90937.00;;;9.60;74.92
10958;BME280;5531;42.570;23.676;2023-04-01T04:55:52;90936.91;;;9.48;75.51
10958;BME280;5531;42.570;23.676;2023-04-01T04:58:21;90930.75;;;9.43;75.38
10958;BME280;5531;42.570;23.676;2023-04-01T05:00:53;90921.22;;;9.48;73.96
10958;BME280;5531;42.570;23.676;2023-04-01T05:03:22;90922.03;;;9.49;74.63
10958;BME280;5531;42.570;23.676;2023-04-01T05:05:53;90901.56;;;9.46;73.02
10958;BME280;5531;42.570;23.676;2023-04-01T05:08:22;90895.03;;;9.55;72.55
10958;BME280;5531;42.570;23.676;2023-04-01T05:10:51;90894.00;;;9.56;71.90
10958;BME280;5531;42.570;23.676;2023-04-01T05:13:20;90895.81;;;9.56;73.48
10958;BME280;5531;42.570;23.676;2023-04-01T05:15:49;90890.47;;;9.50;74.74
10958;BME280;5531;42.570;23.676;2023-04-01T05:18:20;90879.84;;;9.45;75.19
10958;BME280;5531;42.570;23.676;2023-04-01T05:20:51;90877.16;;;9.33;77.27
10958;BME280;5531;42.570;23.676;2023-04-01T05:23:21;90888.00;;;9.37;77.66
10958;BME280;5531;42.570;23.676;2023-04-01T05:25:51;90892.09;;;9.45;77.48
10958;BME280;5531;42.570;23.676;2023-04-01T05:28:22;90882.47;;;9.45;77.91
10958;BME280;5531;42.570;23.676;2023-04-01T05:30:51;90877.03;;;9.47;79.17
10958;BME280;5531;42.570;23.676;2023-04-01T05:33:23;90886.59;;;9.34;79.81
10958;BME280;5531;42.570;23.676;2023-04-01T05:35:53;90881.94;;;9.36;80.07
10958;BME280;5531;42.570;23.676;2023-04-01T05:38:22;90888.75;;;9.19;80.82
10958;BME280;5531;42.570;23.676;2023-04-01T05:40:51;90875.03;;;9.05;81.70
10958;BME280;5531;42.570;23.676;2023-04-01T05:43:27;90878.91;;;8.96;82.55
10958;BME280;5531;42.570;23.676;2023-04-01T05:45:56;90872.31;;;8.68;83.90
10958;BME280;5531;42.570;23.676;2023-04-01T05:48:27;90871.59;;;8.61;84.39
10958;BME280;5531;42.570;23.676;2023-04-01T05:50:56;90871.69;;;8.48;85.79
10958;BME280;5531;42.570;23.676;2023-04-01T05:53:25;90877.22;;;8.58;86.08
10958;BME280;5531;42.570;23.676;2023-04-01T05:55:54;90882.41;;;8.65;86.32
10958;BME280;5531;42.570;23.676;2023-04-01T05:58:23;90873.81;;;8.83;85.05
10958;BME280;5531;42.570;23.676;2023-04-01T06:01:00;90881.47;;;9.03;84.37
10958;BME280;5531;42.570;23.676;2023-04-01T06:03:32;90880.19;;;9.30;83.45
10958;BME280;5531;42.570;23.676;2023-04-01T06:06:02;90885.44;;;9.49;82.70
10958;BME280;5531;42.570;23.676;2023-04-01T06:08:34;90874.63;;;9.64;82.01
10958;BME280;5531;42.570;23.676;2023-04-01T06:11:15;90876.28;;;9.77;81.87
10958;BME280;5531;42.570;23.676;2023-04-01T06:13:59;90894.38;;;10.08;80.32
10958;BME280;5531;42.570;23.676;2023-04-01T06:16:37;90889.88;;;10.16;78.53
10958;BME280;5531;42.570;23.676;2023-04-01T06:19:17;90874.31;;;10.21;78.49
10958;BME280;5531;42.570;23.676;2023-04-01T06:25:01;90869.13;;;10.33;77.88
10958;BME280;5531;42.570;23.676;2023-04-01T06:27:43;90875.56;;;10.49;77.63
10958;BME280;5531;42.570;23.676;2023-04-01T06:30:34;90876.94;;;10.63;77.48
10958;BME280;5531;42.570;23.676;2023-04-01T06:33:20;90879.03;;;10.85;77.16
10958;BME280;5531;42.570;23.676;2023-04-01T06:36:18;90873.78;;;10.96;74.87
10958;BME280;5531;42.570;23.676;2023-04-01T06:42:13;90872.88;;;11.14;74.91
10958;BME280;5531;42.570;23.676;2023-04-01T06:44:52;90887.16;;;11.18;74.23
10958;BME280;5531;42.570;23.676;2023-04-01T06:47:34;90894.44;;;11.28;74.01
10958;BME280;5531;42.570;23.676;2023-04-01T06:50:15;90877.88;;;11.51;73.90
10958;BME280;5531;42.570;23.676;2023-04-01T06:52:56;90875.72;;;11.48;72.02
10958;BME280;5531;42.570;23.676;2023-04-01T06:55:34;90860.78;;;11.61;73.02
10958;BME280;5531;42.570;23.676;2023-04-01T06:58:11;90853.91;;;11.71;72.69
10958;BME280;5531;42.570;23.676;2023-04-01T07:00:44;90860.63;;;11.79;71.68
10958;BME280;5531;42.570;23.676;2023-04-01T07:03:20;90868.25;;;11.81;71.38
10958;BME280;5531;42.570;23.676;2023-04-01T07:05:52;90876.91;;;11.81;71.53
10958;BME280;5531;42.570;23.676;2023-04-01T07:08:27;90877.72;;;11.82;71.71
10958;BME280;5531;42.570;23.676;2023-04-01T07:11:01;90872.03;;;11.73;72.99
10958;BME280;5531;42.570;23.676;2023-04-01T07:13:34;90871.50;;;11.59;73.09
10958;BME280;5531;42.570;23.676;2023-04-01T07:16:12;90866.00;;;11.72;71.55
10958;BME280;5531;42.570;23.676;2023-04-01T07:18:47;90871.91;;;11.80;71.98
10958;BME280;5531;42.570;23.676;2023-04-01T07:21:26;90856.19;;;11.68;72.65
10958;BME280;5531;42.570;23.676;2023-04-01T07:24:04;90852.09;;;11.60;73.80
10958;BME280;5531;42.570;23.676;2023-04-01T07:26:35;90844.25;;;11.48;74.30
10958;BME280;5531;42.570;23.676;2023-04-01T07:29:05;90852.47;;;11.40;73.59
10958;BME280;5531;42.570;23.676;2023-04-01T07:31:50;90856.81;;;11.34;74.62
10958;BME280;5531;42.570;23.676;2023-04-01T07:34:26;90843.47;;;11.48;73.94
10958;BME280;5531;42.570;23.676;2023-04-01T07:37:00;90834.00;;;11.47;74.38
10958;BME280;5531;42.570;23.676;2023-04-01T07:39:43;90825.50;;;11.68;74.74
10958;BME280;5531;42.570;23.676;2023-04-01T07:42:20;90813.66;;;11.66;74.11
10958;BME280;5531;42.570;23.676;2023-04-01T07:44:59;90807.25;;;11.73;74.20
10958;BME280;5531;42.570;23.676;2023-04-01T07:47:43;90806.53;;;11.78;73.66
10958;BME280;5531;42.570;23.676;2023-04-01T07:50:23;90825.94;;;11.77;74.02
10958;BME280;5531;42.570;23.676;2023-04-01T07:53:02;90830.72;;;11.80;72.28
10958;BME280;5531;42.570;23.676;2023-04-01T07:55:41;90823.31;;;11.77;72.06
10958;BME280;5531;42.570;23.676;2023-04-01T07:58:16;90811.22;;;11.76;72.15
10958;BME280;5531;42.570;23.676;2023-04-01T08:00:51;90813.38;;;11.79;72.28
10958;BME280;5531;42.570;23.676;2023-04-01T08:03:33;90823.56;;;11.76;72.43
10958;BME280;5531;42.570;23.676;2023-04-01T08:06:13;90824.91;;;11.78;72.62
10958;BME280;5531;42.570;23.676;2023-04-01T08:08:55;90814.38;;;11.90;73.82
10958;BME280;5531;42.570;23.676;2023-04-01T08:11:40;90809.09;;;12.02;71.72
10958;BME280;5531;42.570;23.676;2023-04-01T08:14:15;90796.44;;;12.27;71.04
10958;BME280;5531;42.570;23.676;2023-04-01T08:16:52;90808.72;;;12.39;68.84
10958;BME280;5531;42.570;23.676;2023-04-01T08:19:42;90797.97;;;12.57;69.71
10958;BME280;5531;42.570;23.676;2023-04-01T08:22:21;90794.22;;;12.70;67.65
10958;BME280;5531;42.570;23.676;2023-04-01T08:24:54;90789.28;;;12.74;66.10
10958;BME280;5531;42.570;23.676;2023-04-01T08:27:32;90778.38;;;12.82;67.35
10958;BME280;5531;42.570;23.676;2023-04-01T08:30:06;90788.09;;;12.81;66.91
10958;BME280;5531;42.570;23.676;2023-04-01T08:32:47;90781.66;;;12.89;65.72
10958;BME280;5531;42.570;23.676;2023-04-01T08:35:24;90781.41;;;12.91;67.57
10958;BME280;5531;42.570;23.676;2023-04-01T08:38:00;90773.59;;;12.96;67.35
10958;BME280;5531;42.570;23.676;2023-04-01T08:40:41;90771.38;;;12.88;67.62
10958;BME280;5531;42.570;23.676;2023-04-01T08:43:38;90754.03;;;13.09;68.19
10958;BME280;5531;42.570;23.676;2023-04-01T08:46:21;90744.66;;;12.96;67.97
10958;BME280;5531;42.570;23.676;2023-04-01T08:49:06;90734.28;;;13.06;68.98
10958;BME280;5531;42.570;23.676;2023-04-01T08:51:52;90728.34;;;13.16;68.78
10958;BME280;5531;42.570;23.676;2023-04-01T08:57:42;90709.19;;;13.37;68.72
10958;BME280;5531;42.570;23.676;2023-04-01T09:00:23;90692.16;;;13.45;69.14
10958;BME280;5531;42.570;23.676;2023-04-01T09:06:38;90689.53;;;13.67;70.55
10958;BME280;5531;42.570;23.676;2023-04-01T09:09:47;90691.31;;;13.89;67.35
10958;BME280;5531;42.570;23.676;2023-04-01T09:12:51;90681.88;;;13.98;67.04
10958;BME280;5531;42.570;23.676;2023-04-01T09:18:59;90692.16;;;14.59;63.36
10958;BME280;5531;42.570;23.676;2023-04-01T09:21:57;90690.75;;;14.89;62.97
10958;BME280;5531;42.570;23.676;2023-04-01T09:25:02;90681.91;;;15.11;61.26
10958;BME280;5531;42.570;23.676;2023-04-01T09:27:39;90688.47;;;15.03;62.49
10958;BME280;5531;42.570;23.676;2023-04-01T09:34:10;90676.69;;;15.21;60.84
10958;BME280;5531;42.570;23.676;2023-04-01T09:36:47;90679.22;;;15.00;62.16
10958;BME280;5531;42.570;23.676;2023-04-01T09:39:35;90684.75;;;14.99;62.02
10958;BME280;5531;42.570;23.676;2023-04-01T09:42:23;90681.81;;;14.95;63.35
10958;BME280;5531;42.570;23.676;2023-04-01T09:44:59;90672.25;;;15.37;60.93
10958;BME280;5531;42.570;23.676;2023-04-01T09:47:45;90668.56;;;15.38;59.66
10958;BME280;5531;42.570;23.676;2023-04-01T09:50:25;90659.13;;;15.57;63.24
10958;BME280;5531;42.570;23.676;2023-04-01T09:53:03;90659.22;;;15.83;62.09
10958;BME280;5531;42.570;23.676;2023-04-01T10:02:11;90648.97;;;15.18;57.78
10958;BME280;5531;42.570;23.676;2023-04-01T10:05:09;90647.44;;;15.33;59.25
10958;BME280;5531;42.570;23.676;2023-04-01T10:17:27;90626.22;;;15.86;58.14
10958;BME280;5531;42.570;23.676;2023-04-01T10:20:12;90624.34;;;15.97;60.42
10958;BME280;5531;42.570;23.676;2023-04-01T10:26:24;90634.88;;;16.79;55.69
10958;BME280;5531;42.570;23.676;2023-04-01T10:32:33;90613.94;;;16.98;55.34
10958;BME280;5531;42.570;23.676;2023-04-01T10:35:24;90614.75;;;16.98;55.87
10958;BME280;5531;42.570;23.676;2023-04-01T10:38:25;90600.16;;;17.06;55.49
10958;BME280;5531;42.570;23.676;2023-04-01T10:44:48;90593.38;;;17.45;55.95
10958;BME280;5531;42.570;23.676;2023-04-01T10:56:42;90578.59;;;16.47;54.90
10958;BME280;5531;42.570;23.676;2023-04-01T11:17:52;90580.22;;;16.28;56.44
10958;BME280;5531;42.570;23.676;2023-04-01T11:23:54;90563.59;;;15.97;56.84
10958;BME280;5531;42.570;23.676;2023-04-01T11:26:33;90566.47;;;15.54;58.14
10958;BME280;5531;42.570;23.676;2023-04-01T11:29:23;90575.13;;;15.34;58.17
10958;BME280;5531;42.570;23.676;2023-04-01T11:32:03;90562.91;;;15.07;59.21
10958;BME280;5531;42.570;23.676;2023-04-01T11:34:49;90554.13;;;14.81;60.04
10958;BME280;5531;42.570;23.676;2023-04-01T11:37:35;90544.84;;;14.68;61.58
10958;BME280;5531;42.570;23.676;2023-04-01T11:40:20;90538.72;;;14.52;61.71
10958;BME280;5531;42.570;23.676;2023-04-01T11:42:57;90533.69;;;14.51;62.64
10958;BME280;5531;42.570;23.676;2023-04-01T11:45:37;90536.53;;;14.39;62.77
10958;BME280;5531;42.570;23.676;2023-04-01T11:48:32;90552.06;;;14.35;63.55
10958;BME280;5531;42.570;23.676;2023-04-01T11:51:30;90548.84;;;14.23;63.02
10958;BME280;5531;42.570;23.676;2023-04-01T11:54:17;90546.47;;;14.26;63.46
10958;BME280;5531;42.570;23.676;2023-04-01T11:57:02;90546.72;;;14.25;63.12
10958;BME280;5531;42.570;23.676;2023-04-01T11:59:48;90562.00;;;14.23;63.60
10958;BME280;5531;42.570;23.676;2023-04-01T12:02:27;90578.06;;;14.21;62.88
10958;BME280;5531;42.570;23.676;2023-04-01T12:05:08;90605.16;;;14.17;62.84
10958;BME280;5531;42.570;23.676;2023-04-01T12:08:07;90628.78;;;14.06;64.14
10958;BME280;5531;42.570;23.676;2023-04-01T12:10:41;90647.09;;;13.91;68.69
10958;BME280;5531;42.570;23.676;2023-04-01T12:13:28;90711.13;;;13.69;73.48
10958;BME280;5531;42.570;23.676;2023-04-01T12:16:13;90744.19;;;12.99;81.28
10958;BME280;5531;42.570;23.676;2023-04-01T12:18:50;90754.06;;;12.07;89.56
10958;BME280;5531;42.570;23.676;2023-04-01T12:21:26;90766.13;;;11.50;96.59
10958;BME280;5531;42.570;23.676;2023-04-01T12:24:25;90766.00;;;11.05;99.42
10958;BME280;5531;42.570;23.676;2023-04-01T12:27:09;90773.66;;;10.94;100.00
10958;BME280;5531;42.570;23.676;2023-04-01T12:29:53;90790.06;;;10.66;100.00
10958;BME280;5531;42.570;23.676;2023-04-01T12:32:37;90794.50;;;10.42;100.00
10958;BME280;5531;42.570;23.676;2023-04-01T12:35:21;90791.09;;;10.41;100.00
10958;BME280;5531;42.570;23.676;2023-04-01T12:37:59;90802.53;;;10.28;100.00
10958;BME280;5531;42.570;23.676;2023-04-01T12:40:55;90792.16;;;10.22;100.00
10958;BME280;5531;42.570;23.676;2023-04-01T12:43:59;90787.94;;;10.21;100.00
10958;BME280;5531;42.570;23.676;2023-04-01T12:46:46;90776.84;;;10.49;100.00
10958;BME280;5531;42.570;23.676;2023-04-01T12:49:39;90768.19;;;10.72;100.00
10958;BME280;5531;42.570;23.676;2023-04-01T12:52:15;90774.22;;;10.96;100.00
10958;BME280;5531;42.570;23.676;2023-04-01T13:04:17;90776.84;;;10.96;100.00
10958;BME280;5531;42.570;23.676;2023-04-01T13:07:10;90764.78;;;10.83;100.00
10958;BME280;5531;42.570;23.676;2023-04-01T13:09:49;90771.28;;;10.69;100.00
10958;BME280;5531;42.570;23.676;2023-04-01T13:12:52;90771.63;;;10.61;100.00
10958;BME280;5531;42.570;23.676;2023-04-01T13:15:33;90764.56;;;10.61;100.00
10958;BME280;5531;42.570;23.676;2023-04-01T13:18:16;90763.97;;;10.48;100.00
10958;BME280;5531;42.570;23.676;2023-04-01T13:20:57;90754.34;;;10.18;100.00
10958;BME280;5531;42.570;23.676;2023-04-01T13:23:48;90748.03;;;9.95;100.00
10958;BME280;5531;42.570;23.676;2023-04-01T13:26:26;90742.34;;;9.86;100.00
10958;BME280;5531;42.570;23.676;2023-04-01T13:29:02;90736.72;;;9.71;100.00
10958;BME280;5531;42.570;23.676;2023-04-01T13:31:53;90734.19;;;9.64;100.00
10958;BME280;5531;42.570;23.676;2023-04-01T13:34:34;90742.72;;;9.60;100.00
10958;BME280;5531;42.570;23.676;2023-04-01T13:37:25;90756.84;;;9.70;100.00
10958;BME280;5531;42.570;23.676;2023-04-01T13:40:13;90765.66;;;9.76;100.00
10958;BME280;5531;42.570;23.676;2023-04-01T13:42:51;90726.34;;;9.95;100.00
10958;BME280;5531;42.570;23.676;2023-04-01T13:45:24;90692.44;;;10.12;100.00
10958;BME280;5531;42.570;23.676;2023-04-01T13:48:30;90696.56;;;10.31;100.00
10958;BME280;5531;42.570;23.676;2023-04-01T13:51:18;90674.25;;;10.64;100.00
10958;BME280;5531;42.570;23.676;2023-04-01T13:57:14;90638.63;;;11.04;100.00
10958;BME280;5531;42.570;23.676;2023-04-01T14:00:10;90645.47;;;11.33;100.00
10958;BME280;5531;42.570;23.676;2023-04-01T14:03:01;90652.25;;;12.09;100.00
10958;BME280;5531;42.570;23.676;2023-04-01T14:05:43;90646.84;;;12.94;100.00
10958;BME280;5531;42.570;23.676;2023-04-01T14:08:24;90643.50;;;13.75;100.00
10958;BME280;5531;42.570;23.676;2023-04-01T14:11:05;90634.06;;;14.06;100.00
10958;BME280;5531;42.570;23.676;2023-04-01T14:13:52;90621.53;;;14.24;100.00
10958;BME280;5531;42.570;23.676;2023-04-01T14:16:45;90617.06;;;14.24;99.05
10958;BME280;5531;42.570;23.676;2023-04-01T14:19:28;90600.91;;;14.58;100.00
10958;BME280;5531;42.570;23.676;2023-04-01T14:22:04;90595.66;;;15.16;99.71
10958;BME280;5531;42.570;23.676;2023-04-01T14:25:10;90605.03;;;15.65;91.53
10958;BME280;5531;42.570;23.676;2023-04-01T14:27:54;90610.31;;;15.65;90.10
10958;BME280;5531;42.570;23.676;2023-04-01T14:31:03;90602.38;;;15.60;91.25
10958;BME280;5531;42.570;23.676;2023-04-01T14:33:45;90594.19;;;15.62;90.79
10958;BME280;5531;42.570;23.676;2023-04-01T14:36:37;90583.06;;;15.49;94.95
10958;BME280;5531;42.570;23.676;2023-04-01T14:42:23;90602.81;;;15.26;93.40
10958;BME280;5531;42.570;23.676;2023-04-01T14:48:17;90602.72;;;14.47;95.95
10958;BME280;5531;42.570;23.676;2023-04-01T14:50:54;90600.19;;;13.88;99.16
10958;BME280;5531;42.570;23.676;2023-04-01T14:53:28;90595.44;;;13.30;100.00
10958;BME280;5531;42.570;23.676;2023-04-01T14:55:59;90597.50;;;12.79;100.00
10958;BME280;5531;42.570;23.676;2023-04-01T14:58:41;90594.19;;;12.44;100.00
10958;BME280;5531;42.570;23.676;2023-04-01T15:01:29;90608.09;;;12.23;100.00
10958;BME280;5531;42.570;23.676;2023-04-01T15:04:22;90617.94;;;12.16;100.00
10958;BME280;5531;42.570;23.676;2023-04-01T15:07:05;90610.31;;;11.80;100.00
10958;BME280;5531;42.570;23.676;2023-04-01T15:09:44;90618.25;;;11.68;100.00
10958;BME280;5531;42.570;23.676;2023-04-01T15:12:23;90613.88;;;11.57;100.00
10958;BME280;5531;42.570;23.676;2023-04-01T15:15:11;90608.88;;;11.55;100.00
10958;BME280;5531;42.570;23.676;2023-04-01T15:17:55;90598.69;;;11.59;100.00
10958;BME280;5531;42.570;23.676;2023-04-01T15:23:45;90579.56;;;12.49;100.00
10958;BME280;5531;42.570;23.676;2023-04-01T15:26:25;90606.88;;;13.41;99.16
10958;BME280;5531;42.570;23.676;2023-04-01T15:29:08;90610.28;;;14.01;94.25
10958;BME280;5531;42.570;23.676;2023-04-01T15:31:46;90625.38;;;14.11;88.60
10958;BME280;5531;42.570;23.676;2023-04-01T15:34:28;90621.13;;;13.45;87.40
10958;BME280;5531;42.570;23.676;2023-04-01T15:37:09;90609.00;;;13.17;87.71
10958;BME280;5531;42.570;23.676;2023-04-01T15:39:52;90591.72;;;12.99;89.61
10958;BME280;5531;42.570;23.676;2023-04-01T15:42:40;90600.81;;;12.69;94.42